createdAt,value
2022-12-14T00:01:28.528Z,-3.66
2022-12-14T00:03:56.369Z,-3.54
2022-12-14T00:06:26.107Z,-3.60
2022-12-14T00:08:55.682Z,-3.52
2022-12-14T00:11:23.324Z,-3.61
2022-12-14T00:14:01.410Z,-3.61
2022-12-14T00:16:31.262Z,-3.57
2022-12-14T00:18:59.304Z,-3.61
2022-12-14T00:21:27.081Z,-3.63
2022-12-14T00:23:54.691Z,-3.55
2022-12-14T00:26:24.277Z,-3.77
2022-12-14T00:28:53.337Z,-3.67
2022-12-14T00:31:21.125Z,-3.62
2022-12-14T00:33:48.168Z,-3.68
2022-12-14T00:36:15.168Z,-3.76
2022-12-14T00:38:42.539Z,-3.81
2022-12-14T00:41:09.993Z,-3.89
2022-12-14T00:43:36.510Z,-3.88
2022-12-14T00:46:03.267Z,-3.92
2022-12-14T00:48:30.810Z,-3.86
2022-12-14T00:50:58.305Z,-3.84
2022-12-14T00:53:25.563Z,-3.94
2022-12-14T00:55:52.608Z,-3.80
2022-12-14T00:58:21.306Z,-3.91
2022-12-14T01:00:48.713Z,-4.50
2022-12-14T01:03:15.663Z,-4.07
2022-12-14T01:05:42.405Z,-4.02
2022-12-14T01:08:15.818Z,-4.05
2022-12-14T01:10:42.292Z,-4.29
2022-12-14T01:13:10.618Z,-4.11
2022-12-14T01:15:37.302Z,-4.07
2022-12-14T01:18:03.985Z,-4.55
2022-12-14T01:20:30.844Z,-4.48
2022-12-14T01:22:57.586Z,-4.03
2022-12-14T01:25:24.499Z,-4.08
2022-12-14T01:27:51.040Z,-4.35
2022-12-14T01:30:19.435Z,-4.12
2022-12-14T01:32:46.910Z,-4.08
2022-12-14T01:35:13.725Z,-4.15
2022-12-14T01:37:40.218Z,-4.67
2022-12-14T01:40:07.399Z,-4.09
2022-12-14T01:42:36.192Z,-4.13
2022-12-14T01:45:03.237Z,-4.62
2022-12-14T01:47:37.985Z,-4.61
2022-12-14T01:53:11.920Z,-4.55
2022-12-14T01:55:49.902Z,-4.27
2022-12-14T01:58:20.152Z,-4.40
2022-12-14T02:00:47.269Z,-4.80
2022-12-14T02:03:18.351Z,-4.42
2022-12-14T02:05:51.415Z,-4.40
2022-12-14T02:08:20.692Z,-4.56
2022-12-14T02:10:50.149Z,-4.45
2022-12-14T02:13:23.015Z,-4.47
2022-12-14T02:15:50.612Z,-4.51
2022-12-14T02:18:43.418Z,-4.58
2022-12-14T02:21:21.934Z,-4.50
2022-12-14T02:24:13.428Z,-4.55
2022-12-14T02:27:24.843Z,-4.59
2022-12-14T02:29:57.253Z,-4.56
2022-12-14T02:32:50.728Z,-4.55
2022-12-14T02:35:41.409Z,-4.79
2022-12-14T02:38:35.553Z,-4.49
2022-12-14T02:41:26.840Z,-4.53
2022-12-14T02:44:16.003Z,-4.58
2022-12-14T02:47:04.990Z,-4.60
2022-12-14T02:49:49.373Z,-4.59
2022-12-14T02:52:32.960Z,-5.66
2022-12-14T02:55:08.767Z,-5.20
2022-12-14T02:57:49.958Z,-4.70
2022-12-14T03:00:16.770Z,-4.84
2022-12-14T03:02:44.587Z,-5.05
2022-12-14T03:05:11.222Z,-5.19
2022-12-14T03:07:48.816Z,-4.79
2022-12-14T03:10:37.380Z,-4.84
2022-12-14T03:13:31.876Z,-4.83
2022-12-14T03:16:03.137Z,-4.96
2022-12-14T03:18:36.350Z,-5.58
2022-12-14T03:21:07.866Z,-4.87
2022-12-14T03:23:39.028Z,-5.57
2022-12-14T03:26:17.379Z,-4.87
2022-12-14T03:28:53.223Z,-4.93
2022-12-14T03:31:25.419Z,-4.92
2022-12-14T03:33:55.636Z,-4.91
2022-12-14T03:36:30.235Z,-4.96
2022-12-14T03:39:00.376Z,-5.04
2022-12-14T03:41:35.048Z,-4.91
2022-12-14T03:44:10.775Z,-4.97
2022-12-14T03:47:32.756Z,-4.94
2022-12-14T03:50:04.874Z,-5.02
2022-12-14T03:53:06.005Z,-5.01
2022-12-14T03:56:02.523Z,-5.08
2022-12-14T03:59:00.080Z,-5.44
2022-12-14T04:01:38.966Z,-5.07
2022-12-14T04:04:26.026Z,-5.51
2022-12-14T04:07:14.461Z,-5.50
2022-12-14T04:10:03.015Z,-4.98
2022-12-14T04:12:55.251Z,-5.01
2022-12-14T04:15:48.473Z,-4.93
2022-12-14T04:18:41.393Z,-5.39
2022-12-14T04:21:14.079Z,-5.54
2022-12-14T04:24:05.430Z,-5.01
2022-12-14T04:26:37.558Z,-5.44
2022-12-14T04:29:28.442Z,-5.35
2022-12-14T04:32:15.215Z,-5.15
2022-12-14T04:34:45.777Z,-5.08
2022-12-14T04:37:17.365Z,-5.21
2022-12-14T04:39:59.021Z,-5.46
2022-12-14T04:42:34.079Z,-5.60
2022-12-14T04:45:07.399Z,-5.32
2022-12-14T04:47:40.458Z,-5.49
2022-12-14T04:50:13.640Z,-5.03
2022-12-14T04:52:45.754Z,-5.17
2022-12-14T04:55:36.929Z,-5.26
2022-12-14T04:58:16.350Z,-5.39
2022-12-14T05:00:59.917Z,-5.45
2022-12-14T05:03:32.241Z,-5.30
2022-12-14T05:06:15.213Z,-5.37
2022-12-14T05:09:26.483Z,-5.51
2022-12-14T05:12:04.958Z,-6.00
2022-12-14T05:14:42.515Z,-5.33
2022-12-14T05:17:09.784Z,-5.40
2022-12-14T05:19:37.535Z,-5.90
2022-12-14T05:22:07.046Z,-5.62
2022-12-14T05:24:33.688Z,-5.77
2022-12-14T05:27:00.262Z,-5.70
2022-12-14T05:29:26.828Z,-5.71
2022-12-14T05:31:53.472Z,-5.53
2022-12-14T05:34:20.318Z,-5.71
2022-12-14T05:36:46.822Z,-6.13
2022-12-14T05:39:14.503Z,-5.72
2022-12-14T05:41:41.263Z,-5.43
2022-12-14T05:44:07.867Z,-5.53
2022-12-14T05:46:34.644Z,-5.39
2022-12-14T05:49:01.191Z,-5.43
2022-12-14T05:51:28.205Z,-5.42
2022-12-14T05:53:54.908Z,-5.47
2022-12-14T05:56:21.480Z,-5.45
2022-12-14T05:58:51.692Z,-5.46
2022-12-14T06:01:19.583Z,-5.43
2022-12-14T06:03:46.889Z,-5.35
2022-12-14T06:06:14.680Z,-5.54
2022-12-14T06:08:44.384Z,-5.48
2022-12-14T06:11:14.073Z,-5.75
2022-12-14T06:13:41.293Z,-5.58
2022-12-14T06:16:16.664Z,-5.70
2022-12-14T06:18:47.844Z,-5.78
2022-12-14T06:21:15.727Z,-5.61
2022-12-14T06:23:42.862Z,-5.83
2022-12-14T06:26:10.550Z,-5.52
2022-12-14T06:28:37.470Z,-5.56
2022-12-14T06:31:04.985Z,-6.01
2022-12-14T06:33:34.135Z,-5.68
2022-12-14T06:36:01.379Z,-5.93
2022-12-14T06:38:27.964Z,-6.22
2022-12-14T06:40:54.758Z,-5.70
2022-12-14T06:43:24.366Z,-5.79
2022-12-14T06:45:50.968Z,-5.72
2022-12-14T06:48:17.527Z,-5.64
2022-12-14T06:50:45.368Z,-5.52
2022-12-14T06:53:13.544Z,-5.79
2022-12-14T06:55:40.103Z,-5.74
2022-12-14T06:58:06.719Z,-6.43
2022-12-14T07:00:33.467Z,-6.32
2022-12-14T07:03:00.104Z,-6.46
2022-12-14T07:05:26.660Z,-6.25
2022-12-14T07:07:53.276Z,-5.92
2022-12-14T07:10:19.785Z,-5.90
2022-12-14T07:12:46.290Z,-5.61
2022-12-14T07:15:12.816Z,-6.27
2022-12-14T07:17:39.318Z,-5.49
2022-12-14T07:20:07.369Z,-5.64
2022-12-14T07:22:35.169Z,-5.56
2022-12-14T07:25:02.175Z,-5.84
2022-12-14T07:27:29.140Z,-5.31
2022-12-14T07:29:56.198Z,-5.08
2022-12-14T07:32:23.106Z,-5.14
2022-12-14T07:34:49.651Z,-5.08
2022-12-14T07:37:16.303Z,-5.13
2022-12-14T07:39:42.972Z,-5.25
2022-12-14T07:42:09.609Z,-5.28
2022-12-14T07:44:36.163Z,-5.33
2022-12-14T07:47:02.665Z,-5.43
2022-12-14T07:49:29.442Z,-5.49
2022-12-14T07:51:55.963Z,-5.69
2022-12-14T07:54:22.534Z,-5.74
2022-12-14T07:56:49.694Z,-5.32
2022-12-14T07:59:16.433Z,-5.76
2022-12-14T08:01:43.805Z,-5.41
2022-12-14T08:04:13.464Z,-5.80
2022-12-14T08:06:41.586Z,-5.36
2022-12-14T08:09:10.617Z,-5.58
2022-12-14T08:11:37.586Z,-5.80
2022-12-14T08:14:07.199Z,-5.07
2022-12-14T08:16:34.165Z,-5.12
2022-12-14T08:19:01.553Z,-4.91
2022-12-14T08:21:29.346Z,-5.13
2022-12-14T08:23:57.077Z,-4.84
2022-12-14T08:26:31.542Z,-4.67
2022-12-14T08:29:00.250Z,-4.43
2022-12-14T08:31:28.153Z,-5.42
2022-12-14T08:33:55.370Z,-4.27
2022-12-14T08:36:28.455Z,-3.65
2022-12-14T08:39:03.912Z,-3.60
2022-12-14T08:41:30.865Z,-3.57
2022-12-14T08:43:59.632Z,-2.85
2022-12-14T08:46:27.835Z,-2.18
2022-12-14T08:48:55.941Z,-1.29
2022-12-14T08:51:24.194Z,-0.27
2022-12-14T08:53:52.000Z,0.82
2022-12-14T08:56:21.016Z,2.10
2022-12-14T08:58:47.728Z,2.31
2022-12-14T09:01:17.401Z,2.32
2022-12-14T09:03:45.719Z,3.34
2022-12-14T09:06:18.413Z,2.98
2022-12-14T09:08:45.004Z,3.82
2022-12-14T09:11:13.366Z,3.85
2022-12-14T09:13:40.312Z,3.62
2022-12-14T09:16:07.366Z,2.28
2022-12-14T09:18:37.082Z,1.55
2022-12-14T09:21:03.957Z,1.62
2022-12-14T09:23:32.547Z,2.36
2022-12-14T09:26:00.449Z,2.01
2022-12-14T09:28:27.877Z,0.87
2022-12-14T09:31:00.255Z,0.31
2022-12-14T09:33:28.987Z,0.94
2022-12-14T09:36:17.953Z,2.27
2022-12-14T09:38:51.082Z,2.75
2022-12-14T09:41:28.665Z,3.78
2022-12-14T09:44:25.036Z,3.70
2022-12-14T09:47:17.088Z,2.70
2022-12-14T09:49:51.350Z,2.19
2022-12-14T09:52:29.797Z,1.97
2022-12-14T09:54:58.813Z,2.24
2022-12-14T09:57:29.606Z,2.93
2022-12-14T09:59:56.687Z,3.69
2022-12-14T10:03:07.233Z,4.36
2022-12-14T10:05:58.743Z,4.91
2022-12-14T10:08:33.435Z,3.42
2022-12-14T10:11:30.901Z,3.65
2022-12-14T10:14:20.963Z,4.36
2022-12-14T10:17:13.542Z,4.36
2022-12-14T10:20:22.019Z,6.57
2022-12-14T10:22:55.130Z,7.57
2022-12-14T10:25:34.134Z,8.77
2022-12-14T10:28:11.989Z,10.45
2022-12-14T10:30:42.027Z,11.28
2022-12-14T10:33:16.677Z,12.88
2022-12-14T10:35:55.175Z,13.38
2022-12-14T10:38:41.478Z,11.45
2022-12-14T10:41:29.728Z,11.49
2022-12-14T10:44:08.855Z,11.29
2022-12-14T10:47:01.834Z,11.54
2022-12-14T10:49:50.653Z,11.82
2022-12-14T10:52:21.854Z,11.76
2022-12-14T10:55:06.231Z,11.59
2022-12-14T10:57:32.750Z,10.27
2022-12-14T11:00:09.444Z,8.40
2022-12-14T11:02:44.034Z,7.33
2022-12-14T11:05:37.168Z,7.97
2022-12-14T11:08:08.160Z,7.95
2022-12-14T11:10:37.008Z,7.27
2022-12-14T11:13:21.624Z,8.13
2022-12-14T11:15:51.122Z,9.03
2022-12-14T11:18:17.731Z,10.58
2022-12-14T11:20:56.651Z,11.05
2022-12-14T11:23:28.940Z,10.10
2022-12-14T11:26:00.982Z,10.71
2022-12-14T11:28:35.974Z,12.43
2022-12-14T11:31:12.832Z,11.45
2022-12-14T11:33:44.620Z,12.74
2022-12-14T11:36:35.117Z,12.63
2022-12-14T11:39:06.809Z,12.71
2022-12-14T11:41:38.918Z,11.82
2022-12-14T11:44:22.397Z,10.90
2022-12-14T11:47:01.412Z,8.97
2022-12-14T11:49:35.034Z,7.50
2022-12-14T11:52:10.730Z,6.79
2022-12-14T11:54:40.141Z,7.50
2022-12-14T11:57:07.264Z,7.22
2022-12-14T11:59:50.105Z,6.12
2022-12-14T12:02:31.036Z,5.42
2022-12-14T12:05:11.588Z,4.67
2022-12-14T12:07:44.992Z,3.81
2022-12-14T12:10:17.246Z,3.13
2022-12-14T12:12:52.425Z,2.49
2022-12-14T12:15:29.537Z,2.60
2022-12-14T12:18:19.862Z,2.23
2022-12-14T12:21:03.274Z,1.89
2022-12-14T12:23:38.009Z,1.92
2022-12-14T12:26:22.616Z,1.87
2022-12-14T12:29:00.279Z,1.76
2022-12-14T12:31:34.781Z,2.10
2022-12-14T12:34:10.141Z,2.08
2022-12-14T12:36:37.192Z,1.76
2022-12-14T12:39:15.649Z,1.54
2022-12-14T12:42:05.222Z,1.70
2022-12-14T12:44:50.680Z,1.64
2022-12-14T12:47:33.391Z,1.56
2022-12-14T12:50:14.254Z,0.72
2022-12-14T12:52:57.764Z,1.68
2022-12-14T12:55:29.759Z,1.66
2022-12-14T12:57:59.549Z,1.67
2022-12-14T13:00:28.004Z,1.60
2022-12-14T13:03:00.607Z,1.19
2022-12-14T13:05:46.297Z,1.51
2022-12-14T13:08:27.583Z,1.52
2022-12-14T13:11:24.977Z,0.79
2022-12-14T13:13:52.099Z,1.25
2022-12-14T13:16:29.725Z,1.23
2022-12-14T13:19:18.951Z,1.33
2022-12-14T13:21:52.082Z,1.40
2022-12-14T13:24:21.796Z,1.60
2022-12-14T13:27:17.446Z,1.82
2022-12-14T13:30:11.360Z,2.48
2022-12-14T13:32:52.074Z,2.75
2022-12-14T13:35:50.915Z,2.42
2022-12-14T13:38:45.849Z,2.13
2022-12-14T13:41:28.158Z,1.91
2022-12-14T13:44:30.941Z,1.70
2022-12-14T13:47:03.635Z,-0.08
2022-12-14T13:49:32.296Z,1.08
2022-12-14T13:52:00.130Z,1.18
2022-12-14T13:54:32.679Z,1.19
2022-12-14T13:57:10.666Z,1.30
2022-12-14T13:59:41.798Z,1.41
2022-12-14T14:02:28.475Z,1.35
2022-12-14T14:05:18.790Z,1.22
2022-12-14T14:07:53.702Z,1.13
2022-12-14T14:10:40.509Z,0.99
2022-12-14T14:13:27.190Z,0.77
2022-12-14T14:18:53.034Z,0.77
2022-12-14T14:21:22.472Z,1.37
2022-12-14T14:24:06.531Z,2.00
2022-12-14T14:26:36.699Z,2.43
2022-12-14T14:29:28.565Z,1.73
2022-12-14T14:32:26.645Z,0.97
2022-12-14T14:34:54.116Z,0.77
2022-12-14T14:37:21.653Z,0.63
2022-12-14T14:40:16.847Z,0.23
2022-12-14T14:42:53.026Z,0.13
2022-12-14T14:45:40.115Z,0.00
2022-12-14T14:48:39.923Z,-0.23
2022-12-14T14:51:26.554Z,-0.41
2022-12-14T14:54:44.781Z,-0.48
2022-12-14T14:57:35.379Z,-0.61
2022-12-14T15:00:04.072Z,-0.76
2022-12-14T15:02:43.015Z,-1.09
2022-12-14T15:05:42.212Z,-1.11
2022-12-14T15:08:28.629Z,-1.49
2022-12-14T15:10:56.158Z,-1.19
2022-12-14T15:13:30.093Z,-1.21
2022-12-14T15:15:57.065Z,-1.65
2022-12-14T15:18:26.512Z,-1.31
2022-12-14T15:20:57.936Z,-1.36
2022-12-14T15:23:25.810Z,-1.60
2022-12-14T15:26:00.727Z,-1.45
2022-12-14T15:28:29.393Z,-1.54
2022-12-14T15:30:59.066Z,-1.52
2022-12-14T15:33:35.699Z,-1.62
2022-12-14T15:36:26.398Z,-1.98
2022-12-14T15:38:56.603Z,-1.59
2022-12-14T15:41:25.523Z,-1.72
2022-12-14T15:43:59.371Z,-1.72
2022-12-14T15:46:30.029Z,-1.91
2022-12-14T15:49:05.690Z,-1.74
2022-12-14T15:51:44.261Z,-1.83
2022-12-14T15:54:24.280Z,-2.26
2022-12-14T15:56:54.127Z,-1.93
2022-12-14T15:59:42.227Z,-1.95
2022-12-14T16:02:31.004Z,-1.98
2022-12-14T16:05:01.260Z,-1.98
2022-12-14T16:07:38.546Z,-2.21
2022-12-14T16:10:28.767Z,-2.06
2022-12-14T16:13:02.330Z,-2.52
2022-12-14T16:15:29.733Z,-2.39
2022-12-14T16:18:02.327Z,-2.09
2022-12-14T16:20:36.027Z,-2.66
2022-12-14T16:23:06.467Z,-2.15
2022-12-14T16:25:37.745Z,-2.45
2022-12-14T16:28:27.941Z,-2.08
2022-12-14T16:31:19.383Z,-2.13
2022-12-14T16:33:50.183Z,-2.12
2022-12-14T16:36:25.601Z,-2.18
2022-12-14T16:39:01.567Z,-2.27
2022-12-14T16:41:41.551Z,-2.30
2022-12-14T16:44:20.380Z,-2.37
2022-12-14T16:47:23.422Z,-2.42
2022-12-14T16:49:50.723Z,-2.51
2022-12-14T16:52:26.298Z,-3.06
2022-12-14T16:55:12.088Z,-2.54
2022-12-14T16:57:52.742Z,-2.54
2022-12-14T17:00:27.354Z,-2.45
2022-12-14T17:02:58.278Z,-2.52
2022-12-14T17:05:30.130Z,-2.53
2022-12-14T17:07:57.291Z,-2.57
2022-12-14T17:10:25.759Z,-2.67
2022-12-14T17:12:56.340Z,-2.72
2022-12-14T17:15:25.442Z,-2.69
2022-12-14T17:17:54.817Z,-2.68
2022-12-14T17:20:23.072Z,-2.82
2022-12-14T17:22:50.110Z,-2.78
2022-12-14T17:25:17.325Z,-2.56
2022-12-14T17:27:45.774Z,-2.58
2022-12-14T17:30:17.893Z,-2.83
2022-12-14T17:32:44.653Z,-2.73
2022-12-14T17:35:20.450Z,-2.89
2022-12-14T17:37:47.543Z,-2.74
2022-12-14T17:40:16.608Z,-2.75
2022-12-14T17:42:47.421Z,-3.19
2022-12-14T17:45:28.563Z,-2.76
2022-12-14T17:47:55.533Z,-2.84
2022-12-14T17:50:22.351Z,-3.00
2022-12-14T17:52:50.459Z,-2.86
2022-12-14T17:55:23.114Z,-2.77
2022-12-14T17:57:51.169Z,-3.51
2022-12-14T18:00:43.406Z,-2.84
2022-12-14T18:03:12.121Z,-2.90
2022-12-14T18:05:46.584Z,-2.96
2022-12-14T18:08:15.565Z,-3.07
2022-12-14T18:10:42.138Z,-3.23
2022-12-14T18:13:11.681Z,-3.48
2022-12-14T18:15:41.649Z,-3.21
2022-12-14T18:18:08.952Z,-3.30
2022-12-14T18:20:36.781Z,-3.45
2022-12-14T18:23:03.621Z,-3.45
2022-12-14T18:25:35.686Z,-3.18
2022-12-14T18:28:04.833Z,-6.63
2022-12-14T18:30:40.714Z,-3.30
2022-12-14T18:33:17.990Z,-3.29
2022-12-14T18:35:55.540Z,-3.43
2022-12-14T18:38:22.747Z,-3.45
2022-12-14T18:40:53.238Z,-3.43
2022-12-14T18:43:26.555Z,-3.39
2022-12-14T18:45:56.972Z,-3.65
2022-12-14T18:48:25.392Z,-3.88
2022-12-14T18:50:54.429Z,-3.67
2022-12-14T18:53:26.322Z,-3.86
2022-12-14T18:56:43.368Z,-3.73
2022-12-14T18:59:09.842Z,-3.84
2022-12-14T19:01:36.400Z,-3.78
2022-12-14T19:04:09.207Z,-3.78
2022-12-14T19:06:44.925Z,-3.96
2022-12-14T19:09:13.088Z,-4.22
2022-12-14T19:17:58.640Z,-5.16
2022-12-14T19:20:29.321Z,-4.92
2022-12-14T19:22:55.924Z,-4.17
2022-12-14T19:25:23.476Z,-4.05
2022-12-14T19:30:40.163Z,-4.11
2022-12-14T19:33:06.643Z,-3.92
2022-12-14T19:35:33.168Z,-4.03
2022-12-14T19:37:59.778Z,-4.13
2022-12-14T19:40:26.653Z,-4.44
2022-12-14T19:42:53.349Z,-4.26
2022-12-14T19:45:22.924Z,-3.89
2022-12-14T19:47:49.613Z,-4.43
2022-12-14T19:50:16.631Z,-3.98
2022-12-14T19:52:43.630Z,-4.53
2022-12-14T19:55:13.992Z,-3.99
2022-12-14T19:57:40.847Z,-4.72
2022-12-14T20:00:11.969Z,-4.60
2022-12-14T20:02:38.765Z,-4.57
2022-12-14T20:05:06.318Z,-4.05
2022-12-14T20:07:33.084Z,-3.96
2022-12-14T20:09:59.601Z,-4.91
2022-12-14T20:12:26.137Z,-4.49
2022-12-14T20:14:52.791Z,-4.32
2022-12-14T20:17:19.358Z,-4.49
2022-12-14T20:19:45.997Z,-4.08
2022-12-14T20:22:14.895Z,-4.40
2022-12-14T20:24:42.653Z,-4.59
2022-12-14T20:27:09.222Z,-4.54
2022-12-14T20:29:36.920Z,-4.19
2022-12-14T20:32:03.530Z,-4.56
2022-12-14T20:34:30.853Z,-4.21
2022-12-14T20:36:57.430Z,-4.28
2022-12-14T20:39:23.938Z,-4.53
2022-12-14T20:41:50.582Z,-4.37
2022-12-14T20:44:18.213Z,-4.37
2022-12-14T20:46:46.409Z,-4.39
2022-12-14T20:49:18.721Z,-4.52
2022-12-14T20:51:46.354Z,-4.36
2022-12-14T20:54:18.926Z,-5.00
2022-12-14T20:56:45.596Z,-4.51
2022-12-14T20:59:16.153Z,-4.61
2022-12-14T21:01:43.349Z,-4.42
2022-12-14T21:04:12.078Z,-4.64
2022-12-14T21:06:42.117Z,-5.01
2022-12-14T21:09:10.293Z,-4.58
2022-12-14T21:12:01.747Z,-5.03
2022-12-14T21:14:32.440Z,-4.65
2022-12-14T21:16:59.846Z,-4.71
2022-12-14T21:19:28.486Z,-4.70
2022-12-14T21:21:55.177Z,-5.37
2022-12-14T21:25:00.551Z,-4.90
2022-12-14T21:27:15.761Z,-4.78
2022-12-14T21:29:42.216Z,-4.93
2022-12-14T21:32:08.959Z,-5.18
2022-12-14T21:34:35.503Z,-5.20
2022-12-14T21:37:02.039Z,-4.79
2022-12-14T21:39:28.626Z,-4.97
2022-12-14T21:42:10.448Z,-4.81
2022-12-14T21:44:39.798Z,-5.25
2022-12-14T21:47:09.535Z,-5.03
2022-12-14T21:49:39.517Z,-5.27
2022-12-14T21:52:07.940Z,-4.97
2022-12-14T21:54:36.108Z,-4.94
2022-12-14T21:57:21.593Z,-5.02
2022-12-14T21:59:48.184Z,-4.94
2022-12-14T22:02:19.337Z,-5.17
2022-12-14T22:04:46.835Z,-5.08
2022-12-14T22:07:18.818Z,-5.03
2022-12-14T22:09:49.473Z,-5.22
2022-12-14T22:12:17.905Z,-4.98
2022-12-14T22:14:44.358Z,-5.30
2022-12-14T22:17:12.617Z,-5.06
2022-12-14T22:19:39.111Z,-5.36
2022-12-14T22:22:05.695Z,-5.05
2022-12-14T22:24:33.197Z,-5.54
2022-12-14T22:26:59.732Z,-5.14
2022-12-14T22:29:26.341Z,-5.28
2022-12-14T22:31:53.210Z,-5.14
2022-12-14T22:34:22.834Z,-5.56
2022-12-14T22:36:51.084Z,-5.25
2022-12-14T22:39:18.611Z,-5.27
2022-12-14T22:41:46.226Z,-5.62
2022-12-14T22:44:13.125Z,-5.24
2022-12-14T22:46:40.802Z,-5.44
2022-12-14T22:49:07.307Z,-5.66
2022-12-14T22:51:33.865Z,-5.48
2022-12-14T22:54:00.397Z,-5.87
2022-12-14T22:56:37.333Z,-5.80
2022-12-14T22:59:09.545Z,-5.94
2022-12-14T23:01:37.603Z,-5.76
2022-12-14T23:04:07.047Z,-5.96
2022-12-14T23:06:33.991Z,-5.67
2022-12-14T23:09:19.027Z,-6.11
2022-12-14T23:12:06.549Z,-6.04
2022-12-14T23:14:53.983Z,-5.58
2022-12-14T23:17:38.884Z,-5.67
2022-12-14T23:20:24.905Z,-5.40
2022-12-14T23:23:09.709Z,-5.79
2022-12-14T23:25:54.877Z,-5.87
2022-12-14T23:28:39.868Z,-5.40
2022-12-14T23:31:24.989Z,-5.46
2022-12-14T23:34:10.284Z,-5.49
2022-12-14T23:36:55.159Z,-5.58
2022-12-14T23:39:40.070Z,-5.74
2022-12-14T23:42:24.999Z,-6.11
2022-12-14T23:45:10.048Z,-5.68
2022-12-14T23:47:54.873Z,-6.22
2022-12-14T23:50:39.882Z,-5.73
2022-12-14T23:53:26.446Z,-5.65
2022-12-14T23:56:11.586Z,-5.64
2022-12-14T23:58:56.546Z,-5.58
